sensor_id;sensor_type;location;lat;lon;timestamp;P1;durP1;ratioP1;P2;durP2;ratioP2
42514;SDS011;28144;49.920;18.730;2023-11-21T00:00:55;17.03;;;8.43;;
42514;SDS011;28144;49.920;18.730;2023-11-21T00:03:38;13.83;;;7.17;;
42514;SDS011;28144;49.920;18.730;2023-11-21T00:06:03;12.33;;;7.33;;
42514;SDS011;28144;49.920;18.730;2023-11-21T00:08:30;11.32;;;5.43;;
42514;SDS011;28144;49.920;18.730;2023-11-21T00:10:55;17.53;;;6.03;;
42514;SDS011;28144;49.920;18.730;2023-11-21T00:13:21;15.60;;;6.83;;
42514;SDS011;28144;49.920;18.730;2023-11-21T00:15:47;18.90;;;6.23;;
42514;SDS011;28144;49.920;18.730;2023-11-21T00:18:13;10.20;;;4.80;;
42514;SDS011;28144;49.920;18.730;2023-11-21T00:20:39;9.07;;;4.50;;
42514;SDS011;28144;49.920;18.730;2023-11-21T00:23:05;8.03;;;3.70;;
42514;SDS011;28144;49.920;18.730;2023-11-21T00:25:30;12.67;;;4.30;;
42514;SDS011;28144;49.920;18.730;2023-11-21T00:27:57;8.52;;;3.63;;
42514;SDS011;28144;49.920;18.730;2023-11-21T00:30:22;7.67;;;3.60;;
42514;SDS011;28144;49.920;18.730;2023-11-21T00:32:48;7.73;;;4.00;;
42514;SDS011;28144;49.920;18.730;2023-11-21T00:35:14;13.30;;;5.43;;
42514;SDS011;28144;49.920;18.730;2023-11-21T00:37:40;10.32;;;3.60;;
42514;SDS011;28144;49.920;18.730;2023-11-21T00:40:05;13.57;;;5.90;;
42514;SDS011;28144;49.920;18.730;2023-11-21T00:42:33;7.90;;;4.83;;
42514;SDS011;28144;49.920;18.730;2023-11-21T00:44:59;10.63;;;5.10;;
42514;SDS011;28144;49.920;18.730;2023-11-21T00:47:25;12.65;;;7.57;;
42514;SDS011;28144;49.920;18.730;2023-11-21T00:49:51;10.67;;;5.87;;
42514;SDS011;28144;49.920;18.730;2023-11-21T00:52:16;8.10;;;3.83;;
42514;SDS011;28144;49.920;18.730;2023-11-21T00:54:42;8.20;;;3.37;;
42514;SDS011;28144;49.920;18.730;2023-11-21T00:57:08;7.13;;;3.33;;
42514;SDS011;28144;49.920;18.730;2023-11-21T00:59:34;8.00;;;3.47;;
42514;SDS011;28144;49.920;18.730;2023-11-21T01:02:00;6.88;;;3.50;;
42514;SDS011;28144;49.920;18.730;2023-11-21T01:04:26;9.43;;;3.40;;
42514;SDS011;28144;49.920;18.730;2023-11-21T01:06:53;9.73;;;3.58;;
42514;SDS011;28144;49.920;18.730;2023-11-21T01:09:18;9.23;;;3.30;;
42514;SDS011;28144;49.920;18.730;2023-11-21T01:11:44;6.80;;;3.20;;
42514;SDS011;28144;49.920;18.730;2023-11-21T01:14:10;11.63;;;3.80;;
42514;SDS011;28144;49.920;18.730;2023-11-21T01:16:36;13.00;;;4.57;;
42514;SDS011;28144;49.920;18.730;2023-11-21T01:19:01;12.73;;;3.77;;
42514;SDS011;28144;49.920;18.730;2023-11-21T01:21:27;9.45;;;4.80;;
42514;SDS011;28144;49.920;18.730;2023-11-21T01:23:53;12.10;;;3.83;;
42514;SDS011;28144;49.920;18.730;2023-11-21T01:26:20;12.70;;;7.10;;
42514;SDS011;28144;49.920;18.730;2023-11-21T01:28:46;8.93;;;4.03;;
42514;SDS011;28144;49.920;18.730;2023-11-21T01:31:14;8.20;;;4.00;;
42514;SDS011;28144;49.920;18.730;2023-11-21T01:33:40;8.57;;;4.35;;
42514;SDS011;28144;49.920;18.730;2023-11-21T01:36:06;11.18;;;4.07;;
42514;SDS011;28144;49.920;18.730;2023-11-21T01:38:32;11.88;;;3.92;;
42514;SDS011;28144;49.920;18.730;2023-11-21T01:40:58;8.40;;;3.55;;
42514;SDS011;28144;49.920;18.730;2023-11-21T01:43:26;9.47;;;3.93;;
42514;SDS011;28144;49.920;18.730;2023-11-21T01:45:55;15.10;;;4.25;;
42514;SDS011;28144;49.920;18.730;2023-11-21T01:48:24;12.60;;;3.93;;
42514;SDS011;28144;49.920;18.730;2023-11-21T01:50:50;10.88;;;4.25;;
42514;SDS011;28144;49.920;18.730;2023-11-21T01:53:16;9.37;;;4.40;;
42514;SDS011;28144;49.920;18.730;2023-11-21T01:55:42;11.20;;;4.70;;
42514;SDS011;28144;49.920;18.730;2023-11-21T01:58:09;8.40;;;4.18;;
42514;SDS011;28144;49.920;18.730;2023-11-21T02:00:35;13.52;;;4.63;;
42514;SDS011;28144;49.920;18.730;2023-11-21T02:03:01;10.35;;;4.75;;
42514;SDS011;28144;49.920;18.730;2023-11-21T02:05:28;13.88;;;4.32;;
42514;SDS011;28144;49.920;18.730;2023-11-21T02:07:54;13.65;;;5.47;;
42514;SDS011;28144;49.920;18.730;2023-11-21T02:10:22;13.33;;;8.87;;
42514;SDS011;28144;49.920;18.730;2023-11-21T02:12:50;14.20;;;7.00;;
42514;SDS011;28144;49.920;18.730;2023-11-21T02:15:16;11.33;;;6.33;;
42514;SDS011;28144;49.920;18.730;2023-11-21T02:17:45;13.10;;;4.40;;
42514;SDS011;28144;49.920;18.730;2023-11-21T02:20:17;10.97;;;4.70;;
42514;SDS011;28144;49.920;18.730;2023-11-21T02:22:44;9.05;;;4.28;;
42514;SDS011;28144;49.920;18.730;2023-11-21T02:25:29;12.43;;;5.57;;
42514;SDS011;28144;49.920;18.730;2023-11-21T02:27:57;10.17;;;4.77;;
42514;SDS011;28144;49.920;18.730;2023-11-21T02:30:24;11.30;;;4.90;;
42514;SDS011;28144;49.920;18.730;2023-11-21T02:32:59;15.87;;;4.90;;
42514;SDS011;28144;49.920;18.730;2023-11-21T02:35:26;9.33;;;4.33;;
42514;SDS011;28144;49.920;18.730;2023-11-21T02:37:52;5.90;;;4.00;;
42514;SDS011;28144;49.920;18.730;2023-11-21T02:40:18;8.70;;;3.50;;
42514;SDS011;28144;49.920;18.730;2023-11-21T02:42:48;8.47;;;3.63;;
42514;SDS011;28144;49.920;18.730;2023-11-21T02:45:17;8.77;;;3.70;;
42514;SDS011;28144;49.920;18.730;2023-11-21T02:50:12;6.97;;;3.40;;
42514;SDS011;28144;49.920;18.730;2023-11-21T02:52:38;6.78;;;3.78;;
42514;SDS011;28144;49.920;18.730;2023-11-21T02:57:32;8.27;;;4.47;;
42514;SDS011;28144;49.920;18.730;2023-11-21T02:59:59;11.18;;;4.93;;
42514;SDS011;28144;49.920;18.730;2023-11-21T03:02:28;11.80;;;5.77;;
42514;SDS011;28144;49.920;18.730;2023-11-21T03:04:54;11.65;;;7.18;;
42514;SDS011;28144;49.920;18.730;2023-11-21T03:07:19;6.17;;;2.80;;
42514;SDS011;28144;49.920;18.730;2023-11-21T03:09:45;9.87;;;3.47;;
42514;SDS011;28144;49.920;18.730;2023-11-21T03:12:11;10.93;;;2.50;;
42514;SDS011;28144;49.920;18.730;2023-11-21T03:14:40;8.27;;;2.67;;
42514;SDS011;28144;49.920;18.730;2023-11-21T03:17:05;8.13;;;3.73;;
42514;SDS011;28144;49.920;18.730;2023-11-21T03:19:32;5.15;;;2.50;;
42514;SDS011;28144;49.920;18.730;2023-11-21T03:21:57;5.20;;;2.70;;
42514;SDS011;28144;49.920;18.730;2023-11-21T03:24:24;5.88;;;2.42;;
42514;SDS011;28144;49.920;18.730;2023-11-21T03:26:51;7.23;;;2.50;;
42514;SDS011;28144;49.920;18.730;2023-11-21T03:29:17;6.00;;;2.70;;
42514;SDS011;28144;49.920;18.730;2023-11-21T03:31:43;6.90;;;2.53;;
42514;SDS011;28144;49.920;18.730;2023-11-21T03:34:16;8.07;;;2.53;;
42514;SDS011;28144;49.920;18.730;2023-11-21T03:36:53;6.13;;;2.33;;
42514;SDS011;28144;49.920;18.730;2023-11-21T03:39:22;5.67;;;2.90;;
42514;SDS011;28144;49.920;18.730;2023-11-21T03:41:48;9.73;;;4.73;;
42514;SDS011;28144;49.920;18.730;2023-11-21T03:44:14;8.20;;;4.15;;
42514;SDS011;28144;49.920;18.730;2023-11-21T03:46:39;6.90;;;3.17;;
42514;SDS011;28144;49.920;18.730;2023-11-21T03:49:05;8.80;;;4.05;;
42514;SDS011;28144;49.920;18.730;2023-11-21T03:51:31;3.87;;;2.50;;
42514;SDS011;28144;49.920;18.730;2023-11-21T03:53:58;6.10;;;2.50;;
42514;SDS011;28144;49.920;18.730;2023-11-21T03:56:24;6.40;;;2.50;;
42514;SDS011;28144;49.920;18.730;2023-11-21T03:58:49;5.20;;;2.67;;
42514;SDS011;28144;49.920;18.730;2023-11-21T04:01:19;6.10;;;2.87;;
42514;SDS011;28144;49.920;18.730;2023-11-21T04:03:47;6.17;;;2.43;;
42514;SDS011;28144;49.920;18.730;2023-11-21T04:06:13;7.00;;;2.38;;
42514;SDS011;28144;49.920;18.730;2023-11-21T04:08:39;6.87;;;2.80;;
42514;SDS011;28144;49.920;18.730;2023-11-21T04:11:04;7.53;;;2.33;;
42514;SDS011;28144;49.920;18.730;2023-11-21T04:13:30;6.57;;;2.97;;
42514;SDS011;28144;49.920;18.730;2023-11-21T04:15:56;7.90;;;2.50;;
42514;SDS011;28144;49.920;18.730;2023-11-21T04:18:22;12.60;;;3.00;;
42514;SDS011;28144;49.920;18.730;2023-11-21T04:20:50;9.50;;;3.23;;
42514;SDS011;28144;49.920;18.730;2023-11-21T04:23:16;7.40;;;3.33;;
42514;SDS011;28144;49.920;18.730;2023-11-21T04:25:42;6.53;;;2.83;;
42514;SDS011;28144;49.920;18.730;2023-11-21T04:28:08;7.00;;;3.60;;
42514;SDS011;28144;49.920;18.730;2023-11-21T04:30:33;7.43;;;4.13;;
42514;SDS011;28144;49.920;18.730;2023-11-21T04:32:59;9.20;;;4.63;;
42514;SDS011;28144;49.920;18.730;2023-11-21T04:35:25;8.20;;;3.27;;
42514;SDS011;28144;49.920;18.730;2023-11-21T04:37:51;7.47;;;4.67;;
42514;SDS011;28144;49.920;18.730;2023-11-21T04:40:16;10.73;;;3.53;;
42514;SDS011;28144;49.920;18.730;2023-11-21T04:42:42;9.38;;;3.70;;
42514;SDS011;28144;49.920;18.730;2023-11-21T04:45:08;9.30;;;3.10;;
42514;SDS011;28144;49.920;18.730;2023-11-21T04:47:35;9.43;;;3.17;;
42514;SDS011;28144;49.920;18.730;2023-11-21T04:50:02;7.43;;;3.72;;
42514;SDS011;28144;49.920;18.730;2023-11-21T04:52:29;6.87;;;3.60;;
42514;SDS011;28144;49.920;18.730;2023-11-21T04:54:54;8.30;;;3.17;;
42514;SDS011;28144;49.920;18.730;2023-11-21T04:57:20;5.53;;;2.53;;
42514;SDS011;28144;49.920;18.730;2023-11-21T04:59:47;8.43;;;2.92;;
42514;SDS011;28144;49.920;18.730;2023-11-21T05:02:16;7.73;;;3.10;;
42514;SDS011;28144;49.920;18.730;2023-11-21T05:04:44;7.17;;;3.07;;
42514;SDS011;28144;49.920;18.730;2023-11-21T05:07:10;5.90;;;3.22;;
42514;SDS011;28144;49.920;18.730;2023-11-21T05:09:40;7.55;;;3.47;;
42514;SDS011;28144;49.920;18.730;2023-11-21T05:12:07;7.47;;;2.80;;
42514;SDS011;28144;49.920;18.730;2023-11-21T05:14:32;8.17;;;3.20;;
42514;SDS011;28144;49.920;18.730;2023-11-21T05:16:58;5.38;;;3.10;;
42514;SDS011;28144;49.920;18.730;2023-11-21T05:19:24;10.20;;;4.43;;
42514;SDS011;28144;49.920;18.730;2023-11-21T05:21:50;11.67;;;5.97;;
42514;SDS011;28144;49.920;18.730;2023-11-21T05:24:15;11.90;;;3.47;;
42514;SDS011;28144;49.920;18.730;2023-11-21T05:26:41;10.37;;;3.70;;
42514;SDS011;28144;49.920;18.730;2023-11-21T05:29:07;7.70;;;3.23;;
42514;SDS011;28144;49.920;18.730;2023-11-21T05:33:59;7.50;;;3.40;;
42514;SDS011;28144;49.920;18.730;2023-11-21T05:36:25;7.10;;;3.63;;
42514;SDS011;28144;49.920;18.730;2023-11-21T05:38:51;11.97;;;4.23;;
42514;SDS011;28144;49.920;18.730;2023-11-21T05:41:16;6.07;;;3.57;;
42514;SDS011;28144;49.920;18.730;2023-11-21T05:43:42;5.83;;;3.20;;
42514;SDS011;28144;49.920;18.730;2023-11-21T05:46:08;7.93;;;4.07;;
42514;SDS011;28144;49.920;18.730;2023-11-21T05:48:34;8.70;;;4.60;;
42514;SDS011;28144;49.920;18.730;2023-11-21T05:51:04;11.50;;;5.53;;
42514;SDS011;28144;49.920;18.730;2023-11-21T05:53:30;14.60;;;5.33;;
42514;SDS011;28144;49.920;18.730;2023-11-21T05:55:56;14.07;;;6.60;;
42514;SDS011;28144;49.920;18.730;2023-11-21T05:58:22;13.37;;;7.50;;
42514;SDS011;28144;49.920;18.730;2023-11-21T06:00:48;12.63;;;6.47;;
42514;SDS011;28144;49.920;18.730;2023-11-21T06:03:13;17.40;;;10.07;;
42514;SDS011;28144;49.920;18.730;2023-11-21T06:05:39;15.40;;;9.77;;
42514;SDS011;28144;49.920;18.730;2023-11-21T06:08:05;18.17;;;8.90;;
42514;SDS011;28144;49.920;18.730;2023-11-21T06:10:32;20.97;;;8.93;;
42514;SDS011;28144;49.920;18.730;2023-11-21T06:12:59;26.90;;;10.00;;
42514;SDS011;28144;49.920;18.730;2023-11-21T06:15:25;24.27;;;10.87;;
42514;SDS011;28144;49.920;18.730;2023-11-21T06:17:50;22.97;;;9.27;;
42514;SDS011;28144;49.920;18.730;2023-11-21T06:20:20;21.33;;;9.50;;
42514;SDS011;28144;49.920;18.730;2023-11-21T06:22:46;16.15;;;7.68;;
42514;SDS011;28144;49.920;18.730;2023-11-21T06:25:14;18.40;;;7.20;;
42514;SDS011;28144;49.920;18.730;2023-11-21T06:27:41;18.53;;;8.50;;
42514;SDS011;28144;49.920;18.730;2023-11-21T06:30:08;12.23;;;6.77;;
42514;SDS011;28144;49.920;18.730;2023-11-21T06:32:35;15.90;;;8.88;;
42514;SDS011;28144;49.920;18.730;2023-11-21T06:37:29;11.47;;;6.57;;
42514;SDS011;28144;49.920;18.730;2023-11-21T06:39:55;16.58;;;8.57;;
42514;SDS011;28144;49.920;18.730;2023-11-21T06:42:22;18.00;;;10.35;;
42514;SDS011;28144;49.920;18.730;2023-11-21T06:44:49;17.00;;;8.37;;
42514;SDS011;28144;49.920;18.730;2023-11-21T06:47:20;15.17;;;8.63;;
42514;SDS011;28144;49.920;18.730;2023-11-21T06:49:46;10.80;;;6.97;;
42514;SDS011;28144;49.920;18.730;2023-11-21T06:52:13;15.77;;;7.13;;
42514;SDS011;28144;49.920;18.730;2023-11-21T06:54:39;10.50;;;6.95;;
42514;SDS011;28144;49.920;18.730;2023-11-21T06:57:05;11.97;;;7.57;;
42514;SDS011;28144;49.920;18.730;2023-11-21T06:59:31;17.37;;;8.17;;
42514;SDS011;28144;49.920;18.730;2023-11-21T07:01:56;15.23;;;6.93;;
42514;SDS011;28144;49.920;18.730;2023-11-21T07:04:22;17.60;;;8.13;;
42514;SDS011;28144;49.920;18.730;2023-11-21T07:06:49;19.27;;;8.63;;
42514;SDS011;28144;49.920;18.730;2023-11-21T07:09:15;16.33;;;8.37;;
42514;SDS011;28144;49.920;18.730;2023-11-21T07:11:41;16.30;;;8.30;;
42514;SDS011;28144;49.920;18.730;2023-11-21T07:14:07;11.93;;;7.33;;
42514;SDS011;28144;49.920;18.730;2023-11-21T07:16:34;18.95;;;6.55;;
42514;SDS011;28144;49.920;18.730;2023-11-21T07:19:05;15.90;;;8.47;;
42514;SDS011;28144;49.920;18.730;2023-11-21T07:21:32;14.00;;;8.40;;
42514;SDS011;28144;49.920;18.730;2023-11-21T07:24:01;12.50;;;8.93;;
42514;SDS011;28144;49.920;18.730;2023-11-21T07:26:27;14.68;;;8.27;;
42514;SDS011;28144;49.920;18.730;2023-11-21T07:28:53;16.08;;;9.57;;
42514;SDS011;28144;49.920;18.730;2023-11-21T07:31:19;20.97;;;14.37;;
42514;SDS011;28144;49.920;18.730;2023-11-21T07:33:46;21.95;;;12.00;;
42514;SDS011;28144;49.920;18.730;2023-11-21T07:36:12;18.65;;;9.43;;
42514;SDS011;28144;49.920;18.730;2023-11-21T07:38:39;16.95;;;10.50;;
42514;SDS011;28144;49.920;18.730;2023-11-21T07:41:05;21.33;;;10.57;;
42514;SDS011;28144;49.920;18.730;2023-11-21T07:43:34;20.40;;;10.17;;
42514;SDS011;28144;49.920;18.730;2023-11-21T07:46:01;17.57;;;9.60;;
42514;SDS011;28144;49.920;18.730;2023-11-21T07:48:30;26.37;;;13.03;;
42514;SDS011;28144;49.920;18.730;2023-11-21T07:50:57;18.77;;;10.15;;
42514;SDS011;28144;49.920;18.730;2023-11-21T07:53:27;25.87;;;9.23;;
42514;SDS011;28144;49.920;18.730;2023-11-21T07:55:55;20.37;;;8.63;;
42514;SDS011;28144;49.920;18.730;2023-11-21T07:58:24;16.70;;;8.57;;
42514;SDS011;28144;49.920;18.730;2023-11-21T08:00:50;19.60;;;8.57;;
42514;SDS011;28144;49.920;18.730;2023-11-21T08:03:16;14.67;;;8.50;;
42514;SDS011;28144;49.920;18.730;2023-11-21T08:05:42;16.80;;;8.23;;
42514;SDS011;28144;49.920;18.730;2023-11-21T08:08:08;16.08;;;7.63;;
42514;SDS011;28144;49.920;18.730;2023-11-21T08:10:34;16.03;;;8.60;;
42514;SDS011;28144;49.920;18.730;2023-11-21T08:13:04;20.83;;;11.00;;
42514;SDS011;28144;49.920;18.730;2023-11-21T08:15:30;18.42;;;8.60;;
42514;SDS011;28144;49.920;18.730;2023-11-21T08:17:59;16.67;;;8.73;;
42514;SDS011;28144;49.920;18.730;2023-11-21T08:20:25;21.67;;;12.10;;
42514;SDS011;28144;49.920;18.730;2023-11-21T08:22:50;18.10;;;10.07;;
42514;SDS011;28144;49.920;18.730;2023-11-21T08:25:18;18.27;;;9.03;;
42514;SDS011;28144;49.920;18.730;2023-11-21T08:27:45;15.23;;;8.80;;
42514;SDS011;28144;49.920;18.730;2023-11-21T08:30:11;15.50;;;8.10;;
42514;SDS011;28144;49.920;18.730;2023-11-21T08:32:39;14.93;;;7.30;;
42514;SDS011;28144;49.920;18.730;2023-11-21T08:35:07;12.98;;;7.72;;
42514;SDS011;28144;49.920;18.730;2023-11-21T08:37:33;15.40;;;7.17;;
42514;SDS011;28144;49.920;18.730;2023-11-21T08:40:03;17.17;;;7.77;;
42514;SDS011;28144;49.920;18.730;2023-11-21T08:42:34;16.10;;;7.50;;
42514;SDS011;28144;49.920;18.730;2023-11-21T08:44:59;14.93;;;7.80;;
42514;SDS011;28144;49.920;18.730;2023-11-21T08:47:25;17.75;;;8.20;;
42514;SDS011;28144;49.920;18.730;2023-11-21T08:49:51;15.63;;;8.23;;
42514;SDS011;28144;49.920;18.730;2023-11-21T08:52:20;18.87;;;10.33;;
42514;SDS011;28144;49.920;18.730;2023-11-21T08:54:48;18.07;;;9.03;;
42514;SDS011;28144;49.920;18.730;2023-11-21T08:57:24;18.47;;;9.50;;
42514;SDS011;28144;49.920;18.730;2023-11-21T08:59:50;21.63;;;9.93;;
42514;SDS011;28144;49.920;18.730;2023-11-21T09:02:21;22.10;;;10.47;;
42514;SDS011;28144;49.920;18.730;2023-11-21T09:04:49;14.60;;;8.43;;
42514;SDS011;28144;49.920;18.730;2023-11-21T09:07:21;16.57;;;8.93;;
42514;SDS011;28144;49.920;18.730;2023-11-21T09:09:47;14.73;;;8.77;;
42514;SDS011;28144;49.920;18.730;2023-11-21T09:12:13;15.13;;;7.80;;
42514;SDS011;28144;49.920;18.730;2023-11-21T09:14:39;17.85;;;7.90;;
42514;SDS011;28144;49.920;18.730;2023-11-21T09:17:05;26.90;;;7.20;;
42514;SDS011;28144;49.920;18.730;2023-11-21T09:19:39;12.70;;;7.63;;
42514;SDS011;28144;49.920;18.730;2023-11-21T09:22:05;18.80;;;9.70;;
42514;SDS011;28144;49.920;18.730;2023-11-21T09:24:31;16.30;;;8.23;;
42514;SDS011;28144;49.920;18.730;2023-11-21T09:26:57;13.67;;;8.20;;
42514;SDS011;28144;49.920;18.730;2023-11-21T09:29:23;15.30;;;8.37;;
42514;SDS011;28144;49.920;18.730;2023-11-21T09:31:49;10.57;;;7.17;;
42514;SDS011;28144;49.920;18.730;2023-11-21T09:34:17;16.93;;;7.87;;
42514;SDS011;28144;49.920;18.730;2023-11-21T09:36:47;13.73;;;7.57;;
42514;SDS011;28144;49.920;18.730;2023-11-21T09:39:13;13.10;;;7.23;;
42514;SDS011;28144;49.920;18.730;2023-11-21T09:44:47;14.07;;;7.03;;
42514;SDS011;28144;49.920;18.730;2023-11-21T09:47:18;12.70;;;7.80;;
42514;SDS011;28144;49.920;18.730;2023-11-21T09:49:48;10.32;;;6.32;;
42514;SDS011;28144;49.920;18.730;2023-11-21T09:52:27;13.60;;;6.57;;
42514;SDS011;28144;49.920;18.730;2023-11-21T09:54:54;15.75;;;7.22;;
42514;SDS011;28144;49.920;18.730;2023-11-21T09:57:23;15.23;;;7.53;;
42514;SDS011;28144;49.920;18.730;2023-11-21T09:59:50;16.00;;;7.40;;
42514;SDS011;28144;49.920;18.730;2023-11-21T10:02:20;14.73;;;7.07;;
42514;SDS011;28144;49.920;18.730;2023-11-21T10:04:46;17.60;;;7.70;;
42514;SDS011;28144;49.920;18.730;2023-11-21T10:07:13;22.50;;;7.38;;
42514;SDS011;28144;49.920;18.730;2023-11-21T10:09:40;15.57;;;7.40;;
42514;SDS011;28144;49.920;18.730;2023-11-21T10:12:07;13.82;;;7.40;;
42514;SDS011;28144;49.920;18.730;2023-11-21T10:19:26;14.32;;;7.93;;
42514;SDS011;28144;49.920;18.730;2023-11-21T10:21:52;12.95;;;6.65;;
42514;SDS011;28144;49.920;18.730;2023-11-21T10:26:45;10.75;;;6.38;;
42514;SDS011;28144;49.920;18.730;2023-11-21T10:29:13;15.10;;;7.77;;
42514;SDS011;28144;49.920;18.730;2023-11-21T10:31:42;12.63;;;6.00;;
42514;SDS011;28144;49.920;18.730;2023-11-21T10:34:14;11.03;;;5.87;;
42514;SDS011;28144;49.920;18.730;2023-11-21T10:36:41;14.27;;;7.07;;
42514;SDS011;28144;49.920;18.730;2023-11-21T10:39:06;13.97;;;6.80;;
42514;SDS011;28144;49.920;18.730;2023-11-21T10:41:33;13.52;;;7.05;;
42514;SDS011;28144;49.920;18.730;2023-11-21T10:44:00;14.15;;;6.50;;
42514;SDS011;28144;49.920;18.730;2023-11-21T10:46:29;11.10;;;4.97;;
42514;SDS011;28144;49.920;18.730;2023-11-21T10:48:56;12.10;;;5.30;;
42514;SDS011;28144;49.920;18.730;2023-11-21T10:51:22;10.68;;;5.47;;
42514;SDS011;28144;49.920;18.730;2023-11-21T10:53:52;11.50;;;6.15;;
42514;SDS011;28144;49.920;18.730;2023-11-21T10:56:18;9.70;;;5.47;;
42514;SDS011;28144;49.920;18.730;2023-11-21T10:58:47;9.95;;;4.57;;
42514;SDS011;28144;49.920;18.730;2023-11-21T11:01:14;10.65;;;4.90;;
42514;SDS011;28144;49.920;18.730;2023-11-21T11:03:43;11.17;;;5.70;;
42514;SDS011;28144;49.920;18.730;2023-11-21T11:06:13;16.67;;;5.63;;
42514;SDS011;28144;49.920;18.730;2023-11-21T11:08:39;15.32;;;6.55;;
42514;SDS011;28144;49.920;18.730;2023-11-21T11:11:05;14.95;;;5.78;;
42514;SDS011;28144;49.920;18.730;2023-11-21T11:13:31;12.25;;;6.22;;
42514;SDS011;28144;49.920;18.730;2023-11-21T11:15:58;11.48;;;6.05;;
42514;SDS011;28144;49.920;18.730;2023-11-21T11:18:28;15.37;;;6.40;;
42514;SDS011;28144;49.920;18.730;2023-11-21T11:20:57;13.43;;;6.23;;
42514;SDS011;28144;49.920;18.730;2023-11-21T11:26:29;18.25;;;7.18;;
42514;SDS011;28144;49.920;18.730;2023-11-21T11:37:01;21.50;;;7.03;;
42514;SDS011;28144;49.920;18.730;2023-11-21T11:42:02;16.70;;;8.03;;
42514;SDS011;28144;49.920;18.730;2023-11-21T11:47:16;19.13;;;8.60;;
42514;SDS011;28144;49.920;18.730;2023-11-21T11:52:45;22.77;;;10.03;;
42514;SDS011;28144;49.920;18.730;2023-11-21T11:55:12;16.53;;;8.57;;
42514;SDS011;28144;49.920;18.730;2023-11-21T11:57:40;11.17;;;6.87;;
42514;SDS011;28144;49.920;18.730;2023-11-21T12:00:07;17.05;;;8.45;;
42514;SDS011;28144;49.920;18.730;2023-11-21T12:02:49;14.88;;;7.25;;
42514;SDS011;28144;49.920;18.730;2023-11-21T12:05:20;18.93;;;7.87;;
42514;SDS011;28144;49.920;18.730;2023-11-21T12:15:50;16.77;;;7.18;;
42514;SDS011;28144;49.920;18.730;2023-11-21T12:18:16;15.67;;;6.80;;
42514;SDS011;28144;49.920;18.730;2023-11-21T12:20:42;16.67;;;8.20;;
42514;SDS011;28144;49.920;18.730;2023-11-21T12:23:12;13.10;;;7.10;;
42514;SDS011;28144;49.920;18.730;2023-11-21T12:25:40;14.43;;;6.70;;
42514;SDS011;28144;49.920;18.730;2023-11-21T12:28:07;14.88;;;7.40;;
42514;SDS011;28144;49.920;18.730;2023-11-21T12:30:34;17.70;;;6.93;;
42514;SDS011;28144;49.920;18.730;2023-11-21T12:33:01;18.55;;;7.97;;
42514;SDS011;28144;49.920;18.730;2023-11-21T12:35:31;20.13;;;7.80;;
42514;SDS011;28144;49.920;18.730;2023-11-21T12:38:02;15.68;;;7.97;;
42514;SDS011;28144;49.920;18.730;2023-11-21T12:40:29;12.50;;;5.83;;
42514;SDS011;28144;49.920;18.730;2023-11-21T12:42:56;10.98;;;4.32;;
42514;SDS011;28144;49.920;18.730;2023-11-21T12:45:27;12.77;;;4.87;;
42514;SDS011;28144;49.920;18.730;2023-11-21T12:48:00;11.90;;;5.53;;
42514;SDS011;28144;49.920;18.730;2023-11-21T12:50:32;9.63;;;4.83;;
42514;SDS011;28144;49.920;18.730;2023-11-21T12:53:00;16.88;;;5.15;;
42514;SDS011;28144;49.920;18.730;2023-11-21T12:55:29;12.83;;;4.77;;
42514;SDS011;28144;49.920;18.730;2023-11-21T12:57:56;11.13;;;4.70;;
42514;SDS011;28144;49.920;18.730;2023-11-21T13:00:32;10.70;;;4.90;;
42514;SDS011;28144;49.920;18.730;2023-11-21T13:03:03;20.97;;;11.93;;
42514;SDS011;28144;49.920;18.730;2023-11-21T13:05:31;13.17;;;5.77;;
42514;SDS011;28144;49.920;18.730;2023-11-21T13:08:01;12.13;;;4.90;;
42514;SDS011;28144;49.920;18.730;2023-11-21T13:10:29;18.77;;;6.77;;
42514;SDS011;28144;49.920;18.730;2023-11-21T13:13:00;11.70;;;5.50;;
42514;SDS011;28144;49.920;18.730;2023-11-21T13:15:29;17.03;;;5.50;;
42514;SDS011;28144;49.920;18.730;2023-11-21T13:17:57;16.30;;;5.00;;
42514;SDS011;28144;49.920;18.730;2023-11-21T13:20:23;14.13;;;5.18;;
42514;SDS011;28144;49.920;18.730;2023-11-21T13:22:53;13.97;;;5.10;;
42514;SDS011;28144;49.920;18.730;2023-11-21T13:25:22;15.53;;;6.27;;
42514;SDS011;28144;49.920;18.730;2023-11-21T13:27:49;15.38;;;5.50;;
42514;SDS011;28144;49.920;18.730;2023-11-21T13:30:16;15.55;;;6.35;;
42514;SDS011;28144;49.920;18.730;2023-11-21T13:32:43;16.52;;;6.85;;
42514;SDS011;28144;49.920;18.730;2023-11-21T13:35:09;19.57;;;7.83;;
42514;SDS011;28144;49.920;18.730;2023-11-21T13:37:52;17.23;;;6.32;;
42514;SDS011;28144;49.920;18.730;2023-11-21T13:40:22;12.13;;;5.80;;
42514;SDS011;28144;49.920;18.730;2023-11-21T13:42:53;13.30;;;6.90;;
42514;SDS011;28144;49.920;18.730;2023-11-21T13:45:20;14.27;;;6.13;;
42514;SDS011;28144;49.920;18.730;2023-11-21T13:47:49;13.53;;;6.27;;
42514;SDS011;28144;49.920;18.730;2023-11-21T13:50:17;17.23;;;6.70;;
42514;SDS011;28144;49.920;18.730;2023-11-21T13:52:48;17.53;;;6.73;;
42514;SDS011;28144;49.920;18.730;2023-11-21T13:55:16;15.30;;;7.50;;
42514;SDS011;28144;49.920;18.730;2023-11-21T13:57:43;17.43;;;7.07;;
42514;SDS011;28144;49.920;18.730;2023-11-21T14:00:14;16.97;;;7.60;;
42514;SDS011;28144;49.920;18.730;2023-11-21T14:02:59;24.70;;;10.73;;
42514;SDS011;28144;49.920;18.730;2023-11-21T14:05:30;28.50;;;12.03;;
42514;SDS011;28144;49.920;18.730;2023-11-21T14:07:57;43.80;;;15.18;;
42514;SDS011;28144;49.920;18.730;2023-11-21T14:10:31;45.73;;;18.10;;
42514;SDS011;28144;49.920;18.730;2023-11-21T14:13:08;48.77;;;19.07;;
42514;SDS011;28144;49.920;18.730;2023-11-21T14:15:41;51.07;;;22.00;;
42514;SDS011;28144;49.920;18.730;2023-11-21T14:18:11;37.67;;;16.80;;
42514;SDS011;28144;49.920;18.730;2023-11-21T14:20:39;35.23;;;15.40;;
42514;SDS011;28144;49.920;18.730;2023-11-21T14:23:06;34.03;;;15.87;;
42514;SDS011;28144;49.920;18.730;2023-11-21T14:25:40;28.70;;;15.93;;
42514;SDS011;28144;49.920;18.730;2023-11-21T14:28:07;30.47;;;15.80;;
42514;SDS011;28144;49.920;18.730;2023-11-21T14:30:33;23.43;;;12.57;;
42514;SDS011;28144;49.920;18.730;2023-11-21T14:33:01;26.27;;;12.73;;
42514;SDS011;28144;49.920;18.730;2023-11-21T14:35:28;26.10;;;10.82;;
42514;SDS011;28144;49.920;18.730;2023-11-21T14:37:58;19.63;;;9.90;;
42514;SDS011;28144;49.920;18.730;2023-11-21T14:40:25;17.17;;;9.10;;
42514;SDS011;28144;49.920;18.730;2023-11-21T14:42:55;16.60;;;8.20;;
42514;SDS011;28144;49.920;18.730;2023-11-21T14:45:22;19.10;;;8.53;;
42514;SDS011;28144;49.920;18.730;2023-11-21T14:47:51;16.90;;;8.13;;
42514;SDS011;28144;49.920;18.730;2023-11-21T14:50:37;18.17;;;8.48;;
42514;SDS011;28144;49.920;18.730;2023-11-21T14:53:03;22.17;;;9.60;;
42514;SDS011;28144;49.920;18.730;2023-11-21T14:55:34;20.03;;;11.13;;
42514;SDS011;28144;49.920;18.730;2023-11-21T14:58:07;24.02;;;11.20;;
42514;SDS011;28144;49.920;18.730;2023-11-21T15:00:37;28.73;;;12.47;;
42514;SDS011;28144;49.920;18.730;2023-11-21T15:03:10;29.50;;;14.57;;
42514;SDS011;28144;49.920;18.730;2023-11-21T15:05:50;31.20;;;14.10;;
42514;SDS011;28144;49.920;18.730;2023-11-21T15:08:25;30.93;;;14.60;;
42514;SDS011;28144;49.920;18.730;2023-11-21T15:10:57;38.07;;;15.57;;
42514;SDS011;28144;49.920;18.730;2023-11-21T15:17:04;27.73;;;12.30;;